Latest Weather Observations for Rhyll

IDV60901

Issued at 5:35 pm EST Wednesday 17 September 2014 (issued every 10 minutes, with the page automatically refreshed every 10 minutes)

About weather observations | Map of Melbourne area stations | Latest observations for Melbourne area | Other Formats
Station Details ID: 086373 Name: RHYLL Lat: -38.46 Lon: 145.31 Height: 13.4 m
Data from the previous 72 hours. | See also: Recent months at Rhyll
Date/Time
EST
Tmp

°C
App
Tmp
°C
Dew
Point
°C
Rel
Hum
%
Delta-T

°C
Wind Press
QNH
hPa
Press
MSL
hPa
Rain
since
9 am
mm
Dir
 
Spd
km/h
Gust
km/h
Spd
kts
Gust
kts
17/05:30pm 9.7 4.6 3.9 67 2.5 W 20 43 11 23 1015.8 1015.8 3.8
17/05:00pm 10.9 6.1 4.8 66 2.8 WSW 19 32 10 17 1015.3 1015.3 3.8
17/04:30pm 11.3 6.1 5.6 68 2.6 WSW 22 43 12 23 1015.1 1015.1 3.8
17/04:09pm 10.9 4.5 5.4 69 2.5 SW 28 48 15 26 1014.7 1014.7 3.8
17/04:00pm 12.2 7.3 4.9 61 3.3 WSW 20 39 11 21 1014.4 1014.4 3.8
17/03:38pm 10.8 3.8 4.3 64 2.9 WSW 30 54 16 29 1014.4 1014.4 3.8
17/03:30pm 12.0 6.5 5.9 66 2.9 WSW 24 44 13 24 1014.1 1014.1 3.6
17/03:00pm 10.9 6.0 5.2 68 2.6 WSW 20 41 11 22 1013.9 1013.9 3.6
17/02:30pm 9.9 5.3 6.6 80 1.5 W 20 37 11 20 1013.7 1013.7 3.6
17/02:00pm 10.9 7.1 7.6 80 1.6 WSW 17 32 9 17 1013.6 1013.6 3.4
17/01:30pm 11.2 7.2 9.1 87 1.0 WSW 20 39 11 21 1013.4 1013.4 3.4
17/01:00pm 11.2 6.3 6.9 75 2.0 WSW 22 44 12 24 1013.1 1013.1 2.8
17/12:30pm 13.3 7.9 6.4 63 3.3 WSW 24 44 13 24 1012.7 1012.7 2.8
17/12:00pm 11.0 7.9 8.9 87 1.0 W 15 30 8 16 1012.7 1012.7 2.8
17/11:30am 11.6 8.2 9.0 84 1.3 W 17 33 9 18 1012.7 1012.7 2.4
17/11:00am 10.5 6.5 8.3 86 1.1 W 19 33 10 18 1012.7 1012.7 1.2
17/10:30am 10.0 5.8 7.6 85 1.1 W 19 26 10 14 1012.6 1012.6 1.0
17/10:00am 12.7 9.4 8.2 74 2.2 W 15 33 8 18 1012.4 1012.4 0.0
17/09:30am 13.0 10.4 9.3 78 1.9 WNW 13 20 7 11 1012.2 1012.2 0.0
17/09:00am 12.3 9.7 9.3 82 1.5 WNW 13 20 7 11 1012.1 1012.1 6.4
17/08:30am 11.4 9.1 9.1 86 1.1 WNW 11 22 6 12 1012.2 1012.2 6.4
17/08:00am 11.8 9.6 9.4 85 1.2 WNW 11 22 6 12 1012.1 1012.1 6.4
17/07:30am 10.6 8.7 9.2 91 0.7 W 9 17 5 9 1012.0 1012.0 6.4
17/07:00am 10.3 8.4 9.2 93 0.5 W 9 15 5 8 1011.7 1011.7 6.4
17/06:30am 9.9 7.9 8.8 93 0.5 W 9 17 5 9 1011.7 1011.7 6.4
17/06:00am 10.5 7.8 8.8 89 0.8 W 13 22 7 12 1011.8 1011.8 5.2
17/05:30am 10.4 7.6 8.7 89 0.8 W 13 26 7 14 1011.7 1011.7 5.2
17/05:00am 10.1 8.1 8.5 90 0.8 WNW 9 22 5 12 1011.6 1011.6 5.2
17/04:30am 10.3 8.4 9.1 92 0.6 NW 9 20 5 11 1011.5 1011.5 5.2
17/04:00am 10.0 8.6 8.9 93 0.5 WNW 6 11 3 6 1011.4 1011.4 5.2
17/03:30am 10.1 8.7 9.0 93 0.5 WNW 6 15 3 8 1011.6 1011.6 5.2
17/03:00am 10.0 8.6 8.9 93 0.5 WNW 6 13 3 7 1011.7 1011.7 5.2
17/02:30am 10.1 8.2 8.9 92 0.6 NW 9 19 5 10 1011.9 1011.9 5.0
17/02:00am 10.1 8.7 8.9 92 0.6 NW 6 11 3 6 1011.9 1011.9 5.0
17/01:30am 10.2 8.9 9.1 93 0.5 NW 6 11 3 6 1012.2 1012.2 5.0
17/01:00am 9.9 8.9 8.8 93 0.5 W 4 9 2 5 1012.5 1012.5 5.0
17/12:30am 9.8 8.2 8.7 93 0.5 W 7 13 4 7 1012.6 1012.6 5.0
17/12:00am 10.2 8.7 9.0 92 0.6 W 7 9 4 5 1012.5 1012.5 3.2
 
Date/Time
EST
Tmp

°C
App
Tmp
°C
Dew
Point
°C
Rel
Hum
%
Delta-T

°C
Wind Press
QNH
hPa
Press
MSL
hPa
Rain
since
9 am
mm
Dir
 
Spd
km/h
Gust
km/h
Spd
kts
Gust
kts
16/11:30pm 9.6 7.8 8.0 90 0.8 W 7 11 4 6 1012.6 1012.6 3.2
16/11:00pm 9.5 7.7 8.1 91 0.7 W 7 9 4 5 1012.9 1012.9 3.2
16/10:30pm 9.8 8.2 8.6 92 0.6 W 7 11 4 6 1012.9 1012.9 3.2
16/10:00pm 10.1 8.6 9.0 93 0.5 W 7 11 4 6 1012.9 1012.9 3.2
16/09:30pm 10.7 9.6 9.9 95 0.4 W 6 9 3 5 1012.8 1012.8 3.2
16/09:00pm 10.7 9.1 10.1 96 0.3 SW 9 13 5 7 1012.8 1012.8 3.2
16/08:30pm 10.9 8.9 10.3 96 0.3 WSW 11 20 6 11 1012.8 1012.8 2.8
16/08:00pm 11.0 8.7 10.4 96 0.3 W 13 20 7 11 1012.5 1012.5 1.6
16/07:30pm 10.9 7.4 10.1 95 0.4 WSW 19 30 10 16 1012.2 1012.2 1.2
16/07:00pm 11.2 8.4 10.1 93 0.6 WSW 15 24 8 13 1011.8 1011.8 0.6
16/06:30pm 11.8 8.0 9.9 88 1.0 WSW 20 39 11 21 1011.4 1011.4 0.6
16/06:00pm 12.5 8.7 9.7 83 1.4 WSW 20 41 11 22 1011.1 1011.1 0.6
16/05:30pm 13.1 9.3 9.7 80 1.7 WSW 20 41 11 22 1010.6 1010.6 0.6
16/05:00pm 13.3 8.3 9.5 78 1.9 WSW 26 43 14 23 1010.3 1010.3 0.6
16/04:30pm 13.3 9.3 10.5 83 1.5 WSW 22 43 12 23 1010.0 1010.0 0.6
16/04:00pm 13.4 10.0 10.4 82 1.6 WSW 19 35 10 19 1009.7 1009.7 0.6
16/03:30pm 14.0 11.4 10.8 81 1.7 WSW 15 30 8 16 1009.5 1009.5 0.6
16/03:00pm 13.6 11.1 11.0 84 1.4 WSW 15 26 8 14 1009.5 1009.5 0.6
16/02:30pm 13.7 10.9 11.2 85 1.3 WSW 17 30 9 16 1009.3 1009.3 0.6
16/02:00pm 13.6 10.6 11.8 89 1.0 SW 19 30 10 16 1009.0 1009.0 0.6
16/01:30pm 13.8 13.3 12.2 90 0.9 WSW 6 13 3 7 1008.9 1008.9 0.6
16/01:00pm 13.5 12.8 12.1 91 0.8 WSW 7 13 4 7 1009.1 1009.1 0.2
16/12:30pm 14.6 13.5 12.1 85 1.4 SSW 9 15 5 8 1009.2 1009.2 0.0
16/12:00pm 15.3 15.0 12.6 84 1.5 S 6 9 3 5 1009.2 1009.2 0.0
16/11:30am 15.4 15.1 12.7 84 1.5 S 6 11 3 6 1009.2 1009.2 0.0
16/11:00am 14.8 13.7 12.1 84 1.5 SSW 9 15 5 8 1009.4 1009.4 0.0
16/10:30am 15.3 14.8 11.9 80 1.8 SSW 6 15 3 8 1009.3 1009.3 0.0
16/10:00am 14.5 14.2 11.5 82 1.6 W 4 7 2 4 1009.4 1009.4 0.0
16/09:30am 14.0 13.4 11.7 86 1.2 W 6 11 3 6 1009.3 1009.3 0.0
16/09:00am 13.6 13.0 11.8 89 1.0 W 6 7 3 4 1009.4 1009.4 0.6
16/08:30am 13.2 12.6 11.8 91 0.7 W 6 9 3 5 1009.4 1009.4 0.6
16/08:00am 12.8 12.5 11.4 91 0.7 W 4 7 2 4 1009.2 1009.2 0.6
16/07:30am 12.7 12.0 11.3 91 0.7 W 6 11 3 6 1008.8 1008.8 0.6
16/07:00am 12.5 11.4 10.7 89 0.9 W 7 13 4 7 1008.6 1008.6 0.6
16/06:30am 12.6 11.7 10.7 88 1.0 W 6 7 3 4 1008.3 1008.3 0.6
16/06:00am 12.8 13.1 10.9 88 1.0 CALM 0 0 0 0 1008.1 1008.1 0.6
16/05:30am 13.0 12.6 11.1 88 1.0 ENE 4 7 2 4 1007.9 1007.9 0.6
16/05:00am 13.1 11.8 11.3 89 1.0 ENE 9 13 5 7 1007.8 1007.8 0.6
16/04:30am 13.1 11.0 11.3 89 1.0 ENE 13 17 7 9 1007.7 1007.7 0.6
16/04:00am 12.9 11.6 11.1 89 0.9 NE 9 15 5 8 1007.7 1007.7 0.6
16/03:30am 12.9 10.8 11.1 89 0.9 ENE 13 17 7 9 1007.5 1007.5 0.6
16/03:00am 13.0 8.3 10.7 86 1.2 E 26 32 14 17 1007.3 1007.3 0.6
16/02:30am 12.9 11.1 10.8 87 1.1 ENE 11 17 6 9 1008.1 1008.1 0.4
16/02:00am 13.0 10.9 11.1 88 1.0 ENE 13 17 7 9 1008.3 1008.3 0.4
16/01:30am 12.8 10.3 11.0 89 0.9 E 15 20 8 11 1008.5 1008.5 0.4
16/01:00am 12.9 8.7 11.1 89 0.9 E 24 30 13 16 1008.4 1008.4 0.4
16/12:30am 12.4 10.9 10.6 89 0.9 E 9 15 5 8 1009.6 1009.6 0.4
16/12:00am 12.4 9.0 10.5 88 1.0 E 19 22 10 12 1009.6 1009.6 0.4
 
Date/Time
EST
Tmp

°C
App
Tmp
°C
Dew
Point
°C
Rel
Hum
%
Delta-T

°C
Wind Press
QNH
hPa
Press
MSL
hPa
Rain
since
9 am
mm
Dir
 
Spd
km/h
Gust
km/h
Spd
kts
Gust
kts
15/11:30pm 13.1 9.6 10.3 83 1.4 E 19 22 10 12 1010.1 1010.1 0.2
15/11:00pm 13.0 9.9 10.2 83 1.4 ENE 17 20 9 11 1010.4 1010.4 0.2
15/10:30pm 13.0 10.2 10.0 82 1.5 E 15 20 8 11 1010.6 1010.6 0.2
15/10:00pm 13.3 8.4 10.1 81 1.7 E 26 33 14 18 1010.5 1010.5 0.2
15/09:30pm 13.4 9.8 10.6 83 1.5 E 20 24 11 13 1010.6 1010.6 0.2
15/09:00pm 13.4 10.4 10.8 84 1.4 E 17 22 9 12 1010.8 1010.8 0.2
15/08:30pm 13.6 10.2 11.1 85 1.3 E 20 26 11 14 1010.8 1010.8 0.2
15/08:00pm 13.7 10.3 11.4 86 1.2 E 20 26 11 14 1011.0 1011.0 0.2
15/07:30pm 13.7 13.1 11.6 87 1.1 SSE 6 9 3 5 1011.3 1011.3 0.2
15/07:00pm 13.8 9.9 12.2 90 0.9 E 24 33 13 18 1010.5 1010.5 0.2
15/06:30pm 13.8 10.4 12.4 91 0.8 E 22 30 12 16 1010.7 1010.7 0.2
15/06:00pm 13.7 9.1 12.3 91 0.8 ESE 28 35 15 19 1010.1 1010.1 0.2
15/05:30pm 13.7 8.7 12.3 91 0.8 ESE 30 33 16 18 1010.6 1010.6 0.2
15/05:00pm 13.9 9.4 12.5 91 0.8 ESE 28 33 15 18 1011.1 1011.1 0.2
15/04:30pm 13.9 10.9 12.1 89 1.0 SE 19 30 10 16 1011.7 1011.7 0.2
15/04:00pm 14.0 11.8 12.0 88 1.1 SE 15 20 8 11 1011.4 1011.4 0.2
15/03:30pm 13.9 11.3 12.1 89 1.0 SE 17 33 9 18 1011.6 1011.6 0.2
15/03:00pm 14.9 13.1 12.0 83 1.6 SSE 13 22 7 12 1012.2 1012.2 0.2
15/02:30pm 15.0 14.3 12.1 83 1.6 SSE 7 9 4 5 1012.4 1012.4 0.2
15/02:00pm 15.4 14.8 12.3 82 1.7 SE 7 9 4 5 1012.6 1012.6 0.2
15/01:30pm 14.3 13.5 11.8 85 1.3 SE 7 11 4 6 1012.9 1012.9 0.2
15/01:00pm 13.2 11.5 11.3 88 1.0 SSE 11 17 6 9 1013.3 1013.3 0.2
15/12:30pm 13.3 11.8 10.5 83 1.5 SE 9 11 5 6 1013.7 1013.7 0.2
15/12:00pm 14.4 13.3 10.8 79 1.9 SE 7 11 4 6 1014.7 1014.7 0.2
15/11:30am 15.1 14.2 11.5 79 1.9 SE 7 13 4 7 1015.2 1015.2 0.0
15/11:00am 14.5 13.6 11.3 81 1.7 ESE 7 11 4 6 1015.7 1015.7 0.0
15/10:30am 13.2 12.2 10.9 86 1.2 E 7 11 4 6 1016.2 1016.2 0.0
15/10:00am 12.7 11.3 10.9 89 0.9 ENE 9 13 5 7 1016.4 1016.4 0.0
15/09:30am 12.0 10.6 10.9 93 0.6 ENE 9 11 5 6 1016.7 1016.7 0.0
15/09:00am 11.3 10.1 10.4 94 0.5 ESE 7 9 4 5 1016.9 1016.9 0.4
15/08:30am 10.9 9.8 9.8 93 0.6 NE 6 7 3 4 1017.5 1017.5 0.4
15/08:00am 11.0 8.5 9.8 92 0.6 E 13 17 7 9 1016.9 1016.9 0.4
15/07:30am 10.9 9.5 9.7 92 0.6 ESE 7 11 4 6 1017.2 1017.2 0.0
15/07:00am 10.7 8.6 9.8 94 0.5 E 11 13 6 7 1017.0 1017.0 0.0
15/06:30am 10.8 8.8 10.0 95 0.4 ESE 11 15 6 8 1017.1 1017.1 0.0
15/06:00am 10.8 9.2 10.2 96 0.3 ESE 9 11 5 6 1017.0 1017.0 0.0
15/05:30am 10.5 9.4 10.0 97 0.3 SE 6 9 3 5 1017.0 1017.0 0.0
15/05:00am 10.5 9.2 10.0 97 0.3 ESE 7 11 4 6 1016.7 1016.7 0.0
15/04:30am 10.4 8.7 9.9 97 0.3 ESE 9 11 5 6 1016.7 1016.7 0.0
15/04:00am 10.1 8.3 9.6 97 0.2 E 9 11 5 6 1016.7 1016.7 0.0
15/03:30am 10.4 8.7 9.9 97 0.3 E 9 11 5 6 1017.0 1017.0 0.0
15/03:00am 10.1 8.7 9.6 97 0.2 E 7 9 4 5 1017.4 1017.4 0.0
15/02:30am 11.0 9.5 10.5 97 0.3 E 9 13 5 7 1017.7 1017.7 0.0
15/02:00am 10.5 9.8 10.0 97 0.3 SE 4 7 2 4 1018.0 1018.0 0.0
15/01:30am 10.3 10.3 9.7 96 0.3 CALM 0 0 0 0 1018.4 1018.4 0.0
15/01:00am 10.3 10.3 9.7 96 0.3 CALM 0 0 0 0 1018.7 1018.7 0.0
15/12:30am 10.6 9.8 9.8 95 0.4 SW 4 4 2 2 1019.1 1019.1 0.0
15/12:00am 10.8 10.4 9.9 94 0.5 SE 2 4 1 2 1019.2 1019.2 0.0
 
Date/Time
EST
Tmp

°C
App
Tmp
°C
Dew
Point
°C
Rel
Hum
%
Delta-T

°C
Wind Press
QNH
hPa
Press
MSL
hPa
Rain
since
9 am
mm
Dir
 
Spd
km/h
Gust
km/h
Spd
kts
Gust
kts
14/11:30pm 10.9 9.6 10.0 94 0.5 E 7 9 4 5 1019.2 1019.2 0.0
14/11:00pm 11.4 9.8 10.3 93 0.6 ESE 9 13 5 7 1019.4 1019.4 0.0
14/10:30pm 11.7 9.8 10.4 92 0.7 ESE 11 13 6 7 1019.6 1019.6 0.0
14/10:00pm 12.2 10.4 10.9 92 0.7 ESE 11 17 6 9 1019.7 1019.7 0.0
14/09:30pm 12.3 11.4 11.2 93 0.6 SE 7 11 4 6 1019.7 1019.7 0.0
14/09:00pm 11.9 11.0 10.8 93 0.6 SSE 6 9 3 5 1019.7 1019.7 0.0
14/08:30pm 12.0 11.0 10.9 93 0.6 SSE 7 11 4 6 1019.8 1019.8 0.0
14/08:00pm 11.7 10.5 10.4 92 0.7 S 7 13 4 7 1019.6 1019.6 0.0
14/07:30pm 11.8 10.6 10.4 91 0.7 S 7 11 4 6 1019.5 1019.5 0.0
14/07:00pm 12.0 10.8 10.4 90 0.8 S 7 11 4 6 1019.4 1019.4 0.0
14/06:30pm 12.3 11.1 10.4 88 1.0 S 7 13 4 7 1019.3 1019.3 0.0
14/06:00pm 12.6 11.3 10.1 85 1.3 S 7 15 4 8 1018.9 1018.9 0.0

Latest Capital City Observations: Canberra | Sydney | Melbourne | Brisbane | Adelaide | Perth | Hobart | Darwin

Other Formats:

Comma delimited format used in spreadsheet applications
http://www.bom.gov.au/fwo/IDV60901/IDV60901.94892.axf

JavaScript Object Notation format (JSON) in row-major order
http://www.bom.gov.au/fwo/IDV60901/IDV60901.94892.json